sensor_id;sensor_type;location;lat;lon;timestamp;temperature;humidity
53053;DHT22;38934;52.690;6.184;2023-04-07T00:01:29;7.00;99.90
53053;DHT22;38934;52.690;6.184;2023-04-07T00:03:54;7.50;99.90
53053;DHT22;38934;52.690;6.184;2023-04-07T00:06:20;7.10;99.90
53053;DHT22;38934;52.690;6.184;2023-04-07T00:08:47;7.10;99.90
53053;DHT22;38934;52.690;6.184;2023-04-07T00:11:12;7.10;99.90
53053;DHT22;38934;52.690;6.184;2023-04-07T00:13:38;7.60;99.90
53053;DHT22;38934;52.690;6.184;2023-04-07T00:16:04;7.10;99.90
53053;DHT22;38934;52.690;6.184;2023-04-07T00:18:30;7.10;99.90
53053;DHT22;38934;52.690;6.184;2023-04-07T00:20:55;7.10;99.90
53053;DHT22;38934;52.690;6.184;2023-04-07T00:23:21;7.20;99.90
53053;DHT22;38934;52.690;6.184;2023-04-07T00:25:47;7.20;99.90
53053;DHT22;38934;52.690;6.184;2023-04-07T00:28:13;7.20;99.90
53053;DHT22;38934;52.690;6.184;2023-04-07T00:30:40;7.20;99.90
53053;DHT22;38934;52.690;6.184;2023-04-07T00:33:05;7.20;99.90
53053;DHT22;38934;52.690;6.184;2023-04-07T00:35:31;7.20;99.90
53053;DHT22;38934;52.690;6.184;2023-04-07T00:37:56;7.20;99.90
53053;DHT22;38934;52.690;6.184;2023-04-07T00:40:23;7.20;99.90
53053;DHT22;38934;52.690;6.184;2023-04-07T00:42:49;7.20;99.90
53053;DHT22;38934;52.690;6.184;2023-04-07T00:45:17;7.20;99.90
53053;DHT22;38934;52.690;6.184;2023-04-07T00:47:43;7.20;99.90
53053;DHT22;38934;52.690;6.184;2023-04-07T00:50:08;7.20;99.90
53053;DHT22;38934;52.690;6.184;2023-04-07T00:52:35;7.20;99.90
53053;DHT22;38934;52.690;6.184;2023-04-07T00:55:00;7.20;99.90
53053;DHT22;38934;52.690;6.184;2023-04-07T00:57:26;7.20;99.90
53053;DHT22;38934;52.690;6.184;2023-04-07T00:59:52;7.20;99.90
53053;DHT22;38934;52.690;6.184;2023-04-07T01:02:37;7.30;99.90
53053;DHT22;38934;52.690;6.184;2023-04-07T01:05:24;7.30;99.90
53053;DHT22;38934;52.690;6.184;2023-04-07T01:10:34;7.30;99.90
53053;DHT22;38934;52.690;6.184;2023-04-07T01:13:04;7.20;99.90
53053;DHT22;38934;52.690;6.184;2023-04-07T01:15:31;7.30;99.90
53053;DHT22;38934;52.690;6.184;2023-04-07T01:18:09;7.30;99.90
53053;DHT22;38934;52.690;6.184;2023-04-07T01:20:37;7.30;99.90
53053;DHT22;38934;52.690;6.184;2023-04-07T01:23:06;7.30;99.90
53053;DHT22;38934;52.690;6.184;2023-04-07T01:31:39;7.30;99.90
53053;DHT22;38934;52.690;6.184;2023-04-07T01:34:09;7.50;99.90
53053;DHT22;38934;52.690;6.184;2023-04-07T01:36:35;7.40;99.90
53053;DHT22;38934;52.690;6.184;2023-04-07T01:39:01;7.30;99.90
53053;DHT22;38934;52.690;6.184;2023-04-07T01:41:28;7.40;99.90
53053;DHT22;38934;52.690;6.184;2023-04-07T01:43:55;7.40;99.90
53053;DHT22;38934;52.690;6.184;2023-04-07T01:46:21;7.40;99.90
53053;DHT22;38934;52.690;6.184;2023-04-07T01:48:47;7.40;99.90
53053;DHT22;38934;52.690;6.184;2023-04-07T01:51:13;7.40;99.90
53053;DHT22;38934;52.690;6.184;2023-04-07T01:53:45;7.50;99.90
53053;DHT22;38934;52.690;6.184;2023-04-07T01:56:12;7.50;99.90
53053;DHT22;38934;52.690;6.184;2023-04-07T01:58:38;8.10;99.90
53053;DHT22;38934;52.690;6.184;2023-04-07T02:01:03;7.90;99.90
53053;DHT22;38934;52.690;6.184;2023-04-07T02:04:00;7.60;99.90
53053;DHT22;38934;52.690;6.184;2023-04-07T02:06:38;7.50;99.90
53053;DHT22;38934;52.690;6.184;2023-04-07T02:09:09;7.60;99.90
53053;DHT22;38934;52.690;6.184;2023-04-07T02:11:36;7.60;99.90
53053;DHT22;38934;52.690;6.184;2023-04-07T02:14:03;7.60;99.90
53053;DHT22;38934;52.690;6.184;2023-04-07T02:16:31;7.60;99.90
53053;DHT22;38934;52.690;6.184;2023-04-07T02:18:58;7.60;99.90
53053;DHT22;38934;52.690;6.184;2023-04-07T02:21:25;7.90;99.90
53053;DHT22;38934;52.690;6.184;2023-04-07T02:23:51;7.60;99.90
53053;DHT22;38934;52.690;6.184;2023-04-07T02:26:18;7.70;99.90
53053;DHT22;38934;52.690;6.184;2023-04-07T02:28:43;7.70;99.90
53053;DHT22;38934;52.690;6.184;2023-04-07T02:31:09;7.70;99.90
53053;DHT22;38934;52.690;6.184;2023-04-07T02:33:35;7.70;99.90
53053;DHT22;38934;52.690;6.184;2023-04-07T02:36:01;7.70;99.90
53053;DHT22;38934;52.690;6.184;2023-04-07T02:38:26;7.70;99.90
53053;DHT22;38934;52.690;6.184;2023-04-07T02:40:52;7.70;99.90
53053;DHT22;38934;52.690;6.184;2023-04-07T02:43:18;7.70;99.90
53053;DHT22;38934;52.690;6.184;2023-04-07T02:45:45;7.70;99.90
53053;DHT22;38934;52.690;6.184;2023-04-07T02:48:12;7.80;99.90
53053;DHT22;38934;52.690;6.184;2023-04-07T02:50:37;7.80;99.90
53053;DHT22;38934;52.690;6.184;2023-04-07T02:53:03;7.80;99.90
53053;DHT22;38934;52.690;6.184;2023-04-07T02:55:29;7.80;99.90
53053;DHT22;38934;52.690;6.184;2023-04-07T02:57:54;7.80;99.90
53053;DHT22;38934;52.690;6.184;2023-04-07T03:00:20;7.80;99.90
53053;DHT22;38934;52.690;6.184;2023-04-07T03:02:46;7.80;99.90
53053;DHT22;38934;52.690;6.184;2023-04-07T03:05:11;7.80;99.90
53053;DHT22;38934;52.690;6.184;2023-04-07T03:07:37;7.80;99.90
53053;DHT22;38934;52.690;6.184;2023-04-07T03:10:03;7.80;99.90
53053;DHT22;38934;52.690;6.184;2023-04-07T03:12:28;7.80;99.90
53053;DHT22;38934;52.690;6.184;2023-04-07T03:14:54;7.90;99.90
53053;DHT22;38934;52.690;6.184;2023-04-07T03:17:20;7.80;99.90
53053;DHT22;38934;52.690;6.184;2023-04-07T03:19:47;7.80;99.90
53053;DHT22;38934;52.690;6.184;2023-04-07T03:22:12;7.80;99.90
53053;DHT22;38934;52.690;6.184;2023-04-07T03:24:39;7.80;99.90
53053;DHT22;38934;52.690;6.184;2023-04-07T03:27:05;7.80;99.90
53053;DHT22;38934;52.690;6.184;2023-04-07T03:29:31;7.80;99.90
53053;DHT22;38934;52.690;6.184;2023-04-07T03:31:56;7.80;99.90
53053;DHT22;38934;52.690;6.184;2023-04-07T03:34:22;7.80;99.90
53053;DHT22;38934;52.690;6.184;2023-04-07T03:36:47;7.80;99.90
53053;DHT22;38934;52.690;6.184;2023-04-07T03:39:13;8.00;99.90
53053;DHT22;38934;52.690;6.184;2023-04-07T03:41:39;7.80;99.90
53053;DHT22;38934;52.690;6.184;2023-04-07T03:44:05;7.80;99.90
53053;DHT22;38934;52.690;6.184;2023-04-07T03:46:31;7.80;99.90
53053;DHT22;38934;52.690;6.184;2023-04-07T03:48:58;7.80;99.90
53053;DHT22;38934;52.690;6.184;2023-04-07T03:51:23;7.80;99.90
53053;DHT22;38934;52.690;6.184;2023-04-07T03:53:49;7.80;99.90
53053;DHT22;38934;52.690;6.184;2023-04-07T03:56:15;7.80;99.90
53053;DHT22;38934;52.690;6.184;2023-04-07T03:58:41;7.80;99.90
53053;DHT22;38934;52.690;6.184;2023-04-07T04:01:07;7.80;99.90
53053;DHT22;38934;52.690;6.184;2023-04-07T04:03:34;7.80;99.90
53053;DHT22;38934;52.690;6.184;2023-04-07T04:05:59;7.80;99.90
53053;DHT22;38934;52.690;6.184;2023-04-07T04:08:26;7.80;99.90
53053;DHT22;38934;52.690;6.184;2023-04-07T04:10:51;7.80;99.90
53053;DHT22;38934;52.690;6.184;2023-04-07T04:13:17;7.80;99.90
53053;DHT22;38934;52.690;6.184;2023-04-07T04:15:42;7.80;99.90
53053;DHT22;38934;52.690;6.184;2023-04-07T04:18:08;7.80;99.90
53053;DHT22;38934;52.690;6.184;2023-04-07T04:20:34;7.80;99.90
53053;DHT22;38934;52.690;6.184;2023-04-07T04:22:59;7.80;99.90
53053;DHT22;38934;52.690;6.184;2023-04-07T04:25:25;7.80;99.90
53053;DHT22;38934;52.690;6.184;2023-04-07T04:27:51;7.80;99.90
53053;DHT22;38934;52.690;6.184;2023-04-07T04:30:16;7.90;99.90
53053;DHT22;38934;52.690;6.184;2023-04-07T04:32:42;8.40;99.90
53053;DHT22;38934;52.690;6.184;2023-04-07T04:35:08;7.80;99.90
53053;DHT22;38934;52.690;6.184;2023-04-07T04:37:33;7.80;99.90
53053;DHT22;38934;52.690;6.184;2023-04-07T04:40:00;7.90;99.90
53053;DHT22;38934;52.690;6.184;2023-04-07T04:42:26;7.80;99.90
53053;DHT22;38934;52.690;6.184;2023-04-07T04:44:52;7.80;99.90
53053;DHT22;38934;52.690;6.184;2023-04-07T04:47:18;7.80;99.90
53053;DHT22;38934;52.690;6.184;2023-04-07T04:49:44;7.80;99.90
53053;DHT22;38934;52.690;6.184;2023-04-07T04:52:09;7.80;99.90
53053;DHT22;38934;52.690;6.184;2023-04-07T04:54:35;7.80;99.90
53053;DHT22;38934;52.690;6.184;2023-04-07T04:57:01;8.00;99.90
53053;DHT22;38934;52.690;6.184;2023-04-07T04:59:26;7.90;99.90
53053;DHT22;38934;52.690;6.184;2023-04-07T05:01:52;7.80;99.90
53053;DHT22;38934;52.690;6.184;2023-04-07T05:04:18;7.80;99.90
53053;DHT22;38934;52.690;6.184;2023-04-07T05:06:43;7.80;99.90
53053;DHT22;38934;52.690;6.184;2023-04-07T05:09:09;7.90;99.90
53053;DHT22;38934;52.690;6.184;2023-04-07T05:11:34;7.90;99.90
53053;DHT22;38934;52.690;6.184;2023-04-07T05:14:00;7.80;99.90
53053;DHT22;38934;52.690;6.184;2023-04-07T05:16:26;7.90;99.90
53053;DHT22;38934;52.690;6.184;2023-04-07T05:18:51;7.80;99.90
53053;DHT22;38934;52.690;6.184;2023-04-07T05:21:17;7.80;99.90
53053;DHT22;38934;52.690;6.184;2023-04-07T05:23:44;7.80;99.90
53053;DHT22;38934;52.690;6.184;2023-04-07T05:26:10;7.80;99.90
53053;DHT22;38934;52.690;6.184;2023-04-07T05:28:36;7.80;99.90
53053;DHT22;38934;52.690;6.184;2023-04-07T05:31:01;7.90;99.90
53053;DHT22;38934;52.690;6.184;2023-04-07T05:33:27;7.90;99.90
53053;DHT22;38934;52.690;6.184;2023-04-07T05:35:53;7.80;99.90
53053;DHT22;38934;52.690;6.184;2023-04-07T05:38:18;7.80;99.90
53053;DHT22;38934;52.690;6.184;2023-04-07T05:40:44;7.80;99.90
53053;DHT22;38934;52.690;6.184;2023-04-07T05:43:10;7.90;99.90
53053;DHT22;38934;52.690;6.184;2023-04-07T05:45:36;7.90;99.90
53053;DHT22;38934;52.690;6.184;2023-04-07T05:48:01;7.90;99.90
53053;DHT22;38934;52.690;6.184;2023-04-07T05:50:27;7.90;99.90
53053;DHT22;38934;52.690;6.184;2023-04-07T05:52:53;7.90;99.90
53053;DHT22;38934;52.690;6.184;2023-04-07T05:55:18;7.90;99.90
53053;DHT22;38934;52.690;6.184;2023-04-07T05:57:44;7.90;99.90
53053;DHT22;38934;52.690;6.184;2023-04-07T06:00:10;7.90;99.90
53053;DHT22;38934;52.690;6.184;2023-04-07T06:02:36;7.90;99.90
53053;DHT22;38934;52.690;6.184;2023-04-07T06:05:04;7.90;99.90
53053;DHT22;38934;52.690;6.184;2023-04-07T06:07:30;7.90;99.90
53053;DHT22;38934;52.690;6.184;2023-04-07T06:09:56;8.10;99.90
53053;DHT22;38934;52.690;6.184;2023-04-07T06:12:22;7.90;99.90
53053;DHT22;38934;52.690;6.184;2023-04-07T06:14:52;7.90;99.90
53053;DHT22;38934;52.690;6.184;2023-04-07T06:17:17;7.90;99.90
53053;DHT22;38934;52.690;6.184;2023-04-07T06:19:43;7.90;99.90
53053;DHT22;38934;52.690;6.184;2023-04-07T06:22:09;8.00;99.90
53053;DHT22;38934;52.690;6.184;2023-04-07T06:24:34;8.00;99.90
53053;DHT22;38934;52.690;6.184;2023-04-07T06:27:00;8.00;99.90
53053;DHT22;38934;52.690;6.184;2023-04-07T06:29:27;8.00;99.90
53053;DHT22;38934;52.690;6.184;2023-04-07T06:31:53;8.00;99.90
53053;DHT22;38934;52.690;6.184;2023-04-07T06:34:18;8.00;99.90
53053;DHT22;38934;52.690;6.184;2023-04-07T06:36:44;8.10;99.90
53053;DHT22;38934;52.690;6.184;2023-04-07T06:39:10;8.10;99.90
53053;DHT22;38934;52.690;6.184;2023-04-07T06:41:35;8.10;99.90
53053;DHT22;38934;52.690;6.184;2023-04-07T06:44:03;8.10;99.90
53053;DHT22;38934;52.690;6.184;2023-04-07T06:46:29;8.20;99.90
53053;DHT22;38934;52.690;6.184;2023-04-07T06:48:55;8.20;99.90
53053;DHT22;38934;52.690;6.184;2023-04-07T06:51:21;8.20;99.90
53053;DHT22;38934;52.690;6.184;2023-04-07T06:53:46;8.30;99.90
53053;DHT22;38934;52.690;6.184;2023-04-07T06:56:13;8.70;99.90
53053;DHT22;38934;52.690;6.184;2023-04-07T06:58:39;8.30;99.90
53053;DHT22;38934;52.690;6.184;2023-04-07T07:01:05;8.30;99.90
53053;DHT22;38934;52.690;6.184;2023-04-07T07:03:31;8.20;99.90
53053;DHT22;38934;52.690;6.184;2023-04-07T07:05:57;8.20;99.90
53053;DHT22;38934;52.690;6.184;2023-04-07T07:08:24;8.20;99.90
53053;DHT22;38934;52.690;6.184;2023-04-07T07:10:51;8.20;99.90
53053;DHT22;38934;52.690;6.184;2023-04-07T07:13:18;8.20;99.90
53053;DHT22;38934;52.690;6.184;2023-04-07T07:15:44;8.20;99.90
53053;DHT22;38934;52.690;6.184;2023-04-07T07:18:11;8.10;99.90
53053;DHT22;38934;52.690;6.184;2023-04-07T07:20:37;8.10;99.90
53053;DHT22;38934;52.690;6.184;2023-04-07T07:23:02;8.10;99.90
53053;DHT22;38934;52.690;6.184;2023-04-07T07:25:28;8.10;99.90
53053;DHT22;38934;52.690;6.184;2023-04-07T07:27:54;8.10;99.90
53053;DHT22;38934;52.690;6.184;2023-04-07T07:30:21;8.10;99.90
53053;DHT22;38934;52.690;6.184;2023-04-07T07:32:47;8.10;99.90
53053;DHT22;38934;52.690;6.184;2023-04-07T07:35:13;8.10;99.90
53053;DHT22;38934;52.690;6.184;2023-04-07T07:37:38;8.10;99.90
53053;DHT22;38934;52.690;6.184;2023-04-07T07:40:04;8.10;99.90
53053;DHT22;38934;52.690;6.184;2023-04-07T07:42:30;8.10;99.90
53053;DHT22;38934;52.690;6.184;2023-04-07T07:44:57;8.10;99.90
53053;DHT22;38934;52.690;6.184;2023-04-07T07:47:22;8.20;99.90
53053;DHT22;38934;52.690;6.184;2023-04-07T07:49:48;8.20;99.90
53053;DHT22;38934;52.690;6.184;2023-04-07T07:52:14;8.20;99.90
53053;DHT22;38934;52.690;6.184;2023-04-07T07:54:40;8.20;99.90
53053;DHT22;38934;52.690;6.184;2023-04-07T07:57:06;8.20;99.90
53053;DHT22;38934;52.690;6.184;2023-04-07T07:59:31;8.20;99.90
53053;DHT22;38934;52.690;6.184;2023-04-07T08:01:57;8.30;99.90
53053;DHT22;38934;52.690;6.184;2023-04-07T08:04:23;8.80;99.90
53053;DHT22;38934;52.690;6.184;2023-04-07T08:06:52;8.20;99.90
53053;DHT22;38934;52.690;6.184;2023-04-07T08:09:18;8.70;99.90
53053;DHT22;38934;52.690;6.184;2023-04-07T08:11:44;8.20;99.90
53053;DHT22;38934;52.690;6.184;2023-04-07T08:14:09;8.20;99.90
53053;DHT22;38934;52.690;6.184;2023-04-07T08:16:35;8.20;99.90
53053;DHT22;38934;52.690;6.184;2023-04-07T08:19:01;8.20;99.90
53053;DHT22;38934;52.690;6.184;2023-04-07T08:21:27;8.20;99.90
53053;DHT22;38934;52.690;6.184;2023-04-07T08:23:53;8.40;99.90
53053;DHT22;38934;52.690;6.184;2023-04-07T08:26:19;8.30;99.90
53053;DHT22;38934;52.690;6.184;2023-04-07T08:28:46;8.30;99.90
53053;DHT22;38934;52.690;6.184;2023-04-07T08:31:11;8.40;99.90
53053;DHT22;38934;52.690;6.184;2023-04-07T08:33:37;8.50;99.90
53053;DHT22;38934;52.690;6.184;2023-04-07T08:36:03;8.60;99.90
53053;DHT22;38934;52.690;6.184;2023-04-07T08:38:29;8.70;99.90
53053;DHT22;38934;52.690;6.184;2023-04-07T08:41:03;8.70;99.90
53053;DHT22;38934;52.690;6.184;2023-04-07T08:43:34;8.80;99.90
53053;DHT22;38934;52.690;6.184;2023-04-07T08:46:01;9.00;99.90
53053;DHT22;38934;52.690;6.184;2023-04-07T08:48:29;9.00;99.90
53053;DHT22;38934;52.690;6.184;2023-04-07T08:51:03;9.00;99.90
53053;DHT22;38934;52.690;6.184;2023-04-07T08:53:40;9.00;99.90
53053;DHT22;38934;52.690;6.184;2023-04-07T08:56:11;9.00;99.90
53053;DHT22;38934;52.690;6.184;2023-04-07T08:58:37;9.00;99.90
53053;DHT22;38934;52.690;6.184;2023-04-07T09:01:04;9.00;99.90
53053;DHT22;38934;52.690;6.184;2023-04-07T09:03:33;9.00;99.90
53053;DHT22;38934;52.690;6.184;2023-04-07T09:06:02;9.00;99.90
53053;DHT22;38934;52.690;6.184;2023-04-07T09:08:28;9.00;99.90
53053;DHT22;38934;52.690;6.184;2023-04-07T09:10:55;8.90;99.90
53053;DHT22;38934;52.690;6.184;2023-04-07T09:13:22;9.00;99.90
53053;DHT22;38934;52.690;6.184;2023-04-07T09:15:48;8.90;99.90
53053;DHT22;38934;52.690;6.184;2023-04-07T09:18:14;8.90;99.90
53053;DHT22;38934;52.690;6.184;2023-04-07T09:20:55;8.90;99.90
53053;DHT22;38934;52.690;6.184;2023-04-07T09:23:36;8.90;99.90
53053;DHT22;38934;52.690;6.184;2023-04-07T09:28:56;8.80;99.90
53053;DHT22;38934;52.690;6.184;2023-04-07T09:31:22;8.80;99.90
53053;DHT22;38934;52.690;6.184;2023-04-07T09:33:51;8.80;99.90
53053;DHT22;38934;52.690;6.184;2023-04-07T09:36:17;8.80;99.90
53053;DHT22;38934;52.690;6.184;2023-04-07T09:38:45;8.80;99.90
53053;DHT22;38934;52.690;6.184;2023-04-07T09:41:12;8.80;99.90
53053;DHT22;38934;52.690;6.184;2023-04-07T09:43:43;8.80;99.90
53053;DHT22;38934;52.690;6.184;2023-04-07T09:46:16;8.70;99.90
53053;DHT22;38934;52.690;6.184;2023-04-07T09:48:44;8.70;99.90
53053;DHT22;38934;52.690;6.184;2023-04-07T09:51:11;8.70;99.90
53053;DHT22;38934;52.690;6.184;2023-04-07T09:53:45;8.70;99.90
53053;DHT22;38934;52.690;6.184;2023-04-07T09:56:13;8.70;99.90
53053;DHT22;38934;52.690;6.184;2023-04-07T09:58:40;8.80;99.90
53053;DHT22;38934;52.690;6.184;2023-04-07T10:01:08;8.80;99.90
53053;DHT22;38934;52.690;6.184;2023-04-07T10:03:35;8.90;99.90
53053;DHT22;38934;52.690;6.184;2023-04-07T10:06:03;8.90;99.90
53053;DHT22;38934;52.690;6.184;2023-04-07T10:08:32;9.00;99.90
53053;DHT22;38934;52.690;6.184;2023-04-07T10:11:00;9.10;99.90
53053;DHT22;38934;52.690;6.184;2023-04-07T10:13:36;9.10;99.90
53053;DHT22;38934;52.690;6.184;2023-04-07T10:16:03;9.10;99.90
53053;DHT22;38934;52.690;6.184;2023-04-07T10:18:31;9.20;99.90
53053;DHT22;38934;52.690;6.184;2023-04-07T10:21:01;9.30;99.90
53053;DHT22;38934;52.690;6.184;2023-04-07T10:26:04;9.30;99.90
53053;DHT22;38934;52.690;6.184;2023-04-07T10:28:32;9.30;99.90
53053;DHT22;38934;52.690;6.184;2023-04-07T10:30:58;9.30;99.90
53053;DHT22;38934;52.690;6.184;2023-04-07T10:33:50;9.40;99.90
53053;DHT22;38934;52.690;6.184;2023-04-07T10:36:17;9.40;99.90
53053;DHT22;38934;52.690;6.184;2023-04-07T10:41:41;9.70;99.90
53053;DHT22;38934;52.690;6.184;2023-04-07T10:44:09;9.80;99.90
53053;DHT22;38934;52.690;6.184;2023-04-07T10:49:10;9.90;99.90
53053;DHT22;38934;52.690;6.184;2023-04-07T10:51:36;9.80;99.90
53053;DHT22;38934;52.690;6.184;2023-04-07T10:54:16;9.70;99.90
53053;DHT22;38934;52.690;6.184;2023-04-07T10:59:30;9.80;99.90
53053;DHT22;38934;52.690;6.184;2023-04-07T11:04:38;9.80;99.90
53053;DHT22;38934;52.690;6.184;2023-04-07T11:07:05;9.90;99.90
53053;DHT22;38934;52.690;6.184;2023-04-07T11:09:30;10.00;99.90
53053;DHT22;38934;52.690;6.184;2023-04-07T11:11:56;10.10;99.90
53053;DHT22;38934;52.690;6.184;2023-04-07T11:14:26;10.20;99.90
53053;DHT22;38934;52.690;6.184;2023-04-07T11:16:52;10.20;99.90
53053;DHT22;38934;52.690;6.184;2023-04-07T11:19:18;10.30;99.90
53053;DHT22;38934;52.690;6.184;2023-04-07T11:21:44;10.40;99.90
53053;DHT22;38934;52.690;6.184;2023-04-07T11:24:10;10.80;99.90
53053;DHT22;38934;52.690;6.184;2023-04-07T11:26:41;10.50;99.90
53053;DHT22;38934;52.690;6.184;2023-04-07T11:29:08;10.40;99.90
53053;DHT22;38934;52.690;6.184;2023-04-07T11:31:36;10.40;99.90
53053;DHT22;38934;52.690;6.184;2023-04-07T11:34:03;11.00;99.90
53053;DHT22;38934;52.690;6.184;2023-04-07T11:36:33;10.20;99.90
53053;DHT22;38934;52.690;6.184;2023-04-07T11:39:00;10.10;99.90
53053;DHT22;38934;52.690;6.184;2023-04-07T11:41:28;10.30;99.90
53053;DHT22;38934;52.690;6.184;2023-04-07T11:44:10;10.00;99.90
53053;DHT22;38934;52.690;6.184;2023-04-07T11:46:51;10.00;99.90
53053;DHT22;38934;52.690;6.184;2023-04-07T11:49:16;9.90;99.90
53053;DHT22;38934;52.690;6.184;2023-04-07T11:51:43;9.90;99.90
53053;DHT22;38934;52.690;6.184;2023-04-07T11:54:10;9.90;99.90
53053;DHT22;38934;52.690;6.184;2023-04-07T11:56:45;9.80;99.90
53053;DHT22;38934;52.690;6.184;2023-04-07T11:59:24;9.80;99.90
53053;DHT22;38934;52.690;6.184;2023-04-07T12:01:51;10.70;99.90
53053;DHT22;38934;52.690;6.184;2023-04-07T12:04:17;9.80;99.90
53053;DHT22;38934;52.690;6.184;2023-04-07T12:06:47;9.80;99.90
53053;DHT22;38934;52.690;6.184;2023-04-07T12:09:33;9.80;99.90
53053;DHT22;38934;52.690;6.184;2023-04-07T12:12:06;9.80;99.90
53053;DHT22;38934;52.690;6.184;2023-04-07T12:14:33;9.90;99.90
53053;DHT22;38934;52.690;6.184;2023-04-07T12:17:00;10.00;99.90
53053;DHT22;38934;52.690;6.184;2023-04-07T12:19:29;10.00;99.90
53053;DHT22;38934;52.690;6.184;2023-04-07T12:21:55;10.10;99.90
53053;DHT22;38934;52.690;6.184;2023-04-07T12:24:21;10.10;99.90
53053;DHT22;38934;52.690;6.184;2023-04-07T12:26:48;10.10;99.90
53053;DHT22;38934;52.690;6.184;2023-04-07T12:29:15;10.30;99.90
53053;DHT22;38934;52.690;6.184;2023-04-07T12:31:41;10.30;99.90
53053;DHT22;38934;52.690;6.184;2023-04-07T12:34:08;10.50;99.90
53053;DHT22;38934;52.690;6.184;2023-04-07T12:36:33;10.70;99.90
53053;DHT22;38934;52.690;6.184;2023-04-07T12:38:59;10.80;99.90
53053;DHT22;38934;52.690;6.184;2023-04-07T12:41:25;10.80;99.90
53053;DHT22;38934;52.690;6.184;2023-04-07T12:43:51;10.90;99.90
53053;DHT22;38934;52.690;6.184;2023-04-07T12:46:17;11.00;99.90
53053;DHT22;38934;52.690;6.184;2023-04-07T12:48:43;11.30;99.90
53053;DHT22;38934;52.690;6.184;2023-04-07T12:51:09;11.20;99.90
53053;DHT22;38934;52.690;6.184;2023-04-07T12:53:35;11.30;99.90
53053;DHT22;38934;52.690;6.184;2023-04-07T12:56:00;11.30;99.90
53053;DHT22;38934;52.690;6.184;2023-04-07T12:58:26;11.30;99.90
53053;DHT22;38934;52.690;6.184;2023-04-07T13:00:52;11.30;99.90
53053;DHT22;38934;52.690;6.184;2023-04-07T13:03:18;11.60;99.90
53053;DHT22;38934;52.690;6.184;2023-04-07T13:05:44;11.40;99.90
53053;DHT22;38934;52.690;6.184;2023-04-07T13:08:09;11.40;99.90
53053;DHT22;38934;52.690;6.184;2023-04-07T13:10:35;11.40;99.90
53053;DHT22;38934;52.690;6.184;2023-04-07T13:13:02;11.60;99.90
53053;DHT22;38934;52.690;6.184;2023-04-07T13:15:27;11.30;99.90
53053;DHT22;38934;52.690;6.184;2023-04-07T13:17:53;11.20;99.90
53053;DHT22;38934;52.690;6.184;2023-04-07T13:20:20;11.10;99.90
53053;DHT22;38934;52.690;6.184;2023-04-07T13:22:45;11.00;99.90
53053;DHT22;38934;52.690;6.184;2023-04-07T13:25:12;10.90;99.90
53053;DHT22;38934;52.690;6.184;2023-04-07T13:27:39;11.70;99.90
53053;DHT22;38934;52.690;6.184;2023-04-07T13:30:06;10.70;99.90
53053;DHT22;38934;52.690;6.184;2023-04-07T13:32:32;10.60;99.90
53053;DHT22;38934;52.690;6.184;2023-04-07T13:34:58;10.60;99.90
53053;DHT22;38934;52.690;6.184;2023-04-07T13:37:24;10.50;99.90
53053;DHT22;38934;52.690;6.184;2023-04-07T13:39:50;10.70;99.90
53053;DHT22;38934;52.690;6.184;2023-04-07T13:42:16;10.60;99.90
53053;DHT22;38934;52.690;6.184;2023-04-07T13:44:43;10.70;99.90
53053;DHT22;38934;52.690;6.184;2023-04-07T13:47:12;10.70;99.90
53053;DHT22;38934;52.690;6.184;2023-04-07T13:49:39;10.70;99.90
53053;DHT22;38934;52.690;6.184;2023-04-07T13:52:05;10.70;99.90
53053;DHT22;38934;52.690;6.184;2023-04-07T13:54:31;10.70;99.90
53053;DHT22;38934;52.690;6.184;2023-04-07T13:56:57;10.70;99.90
53053;DHT22;38934;52.690;6.184;2023-04-07T13:59:22;10.70;99.90
53053;DHT22;38934;52.690;6.184;2023-04-07T14:01:48;10.70;99.90
53053;DHT22;38934;52.690;6.184;2023-04-07T14:04:13;10.60;99.90
53053;DHT22;38934;52.690;6.184;2023-04-07T14:06:40;10.60;99.90
53053;DHT22;38934;52.690;6.184;2023-04-07T14:09:05;10.60;99.90
53053;DHT22;38934;52.690;6.184;2023-04-07T14:11:33;10.60;99.90
53053;DHT22;38934;52.690;6.184;2023-04-07T14:13:59;10.60;99.90
53053;DHT22;38934;52.690;6.184;2023-04-07T14:16:25;10.50;99.90
53053;DHT22;38934;52.690;6.184;2023-04-07T14:18:51;10.50;99.90
53053;DHT22;38934;52.690;6.184;2023-04-07T14:21:17;10.50;99.90
53053;DHT22;38934;52.690;6.184;2023-04-07T14:23:43;10.50;99.90
53053;DHT22;38934;52.690;6.184;2023-04-07T14:26:09;10.50;99.90
53053;DHT22;38934;52.690;6.184;2023-04-07T14:28:36;10.60;99.90
53053;DHT22;38934;52.690;6.184;2023-04-07T14:31:02;10.70;99.90
53053;DHT22;38934;52.690;6.184;2023-04-07T14:33:27;10.70;99.90
53053;DHT22;38934;52.690;6.184;2023-04-07T14:35:53;10.70;99.90
53053;DHT22;38934;52.690;6.184;2023-04-07T14:38:19;10.70;99.90
53053;DHT22;38934;52.690;6.184;2023-04-07T14:40:49;10.70;99.90
53053;DHT22;38934;52.690;6.184;2023-04-07T14:43:14;10.70;99.90
53053;DHT22;38934;52.690;6.184;2023-04-07T14:45:40;10.70;99.90
53053;DHT22;38934;52.690;6.184;2023-04-07T14:48:06;10.70;99.90
53053;DHT22;38934;52.690;6.184;2023-04-07T14:50:32;10.80;99.90
53053;DHT22;38934;52.690;6.184;2023-04-07T14:52:58;10.80;99.90
53053;DHT22;38934;52.690;6.184;2023-04-07T14:55:24;10.80;99.90
53053;DHT22;38934;52.690;6.184;2023-04-07T14:57:50;10.80;99.90
53053;DHT22;38934;52.690;6.184;2023-04-07T15:00:16;10.90;99.90
53053;DHT22;38934;52.690;6.184;2023-04-07T15:02:42;10.90;99.90
53053;DHT22;38934;52.690;6.184;2023-04-07T15:05:08;10.90;99.90
53053;DHT22;38934;52.690;6.184;2023-04-07T15:07:33;10.90;99.90
53053;DHT22;38934;52.690;6.184;2023-04-07T15:09:59;11.00;99.90
53053;DHT22;38934;52.690;6.184;2023-04-07T15:12:26;10.90;99.90
53053;DHT22;38934;52.690;6.184;2023-04-07T15:14:53;10.90;99.90
53053;DHT22;38934;52.690;6.184;2023-04-07T15:17:18;10.90;99.90
53053;DHT22;38934;52.690;6.184;2023-04-07T15:19:46;10.90;99.90
53053;DHT22;38934;52.690;6.184;2023-04-07T15:22:11;10.90;99.90
53053;DHT22;38934;52.690;6.184;2023-04-07T15:24:41;10.90;99.90
53053;DHT22;38934;52.690;6.184;2023-04-07T15:27:07;10.90;99.90
53053;DHT22;38934;52.690;6.184;2023-04-07T15:29:33;11.00;99.90
53053;DHT22;38934;52.690;6.184;2023-04-07T15:31:59;11.00;99.90
53053;DHT22;38934;52.690;6.184;2023-04-07T15:34:25;11.00;99.90
53053;DHT22;38934;52.690;6.184;2023-04-07T15:36:50;11.10;99.90
53053;DHT22;38934;52.690;6.184;2023-04-07T15:39:16;11.10;99.90
53053;DHT22;38934;52.690;6.184;2023-04-07T15:41:42;11.10;99.90
53053;DHT22;38934;52.690;6.184;2023-04-07T15:44:08;11.70;99.90
53053;DHT22;38934;52.690;6.184;2023-04-07T15:46:34;11.10;99.90
53053;DHT22;38934;52.690;6.184;2023-04-07T15:48:59;11.10;99.90
53053;DHT22;38934;52.690;6.184;2023-04-07T15:51:25;11.10;99.90
53053;DHT22;38934;52.690;6.184;2023-04-07T15:53:56;10.30;99.90
53053;DHT22;38934;52.690;6.184;2023-04-07T15:56:21;11.00;99.90
53053;DHT22;38934;52.690;6.184;2023-04-07T15:58:48;11.10;99.90
53053;DHT22;38934;52.690;6.184;2023-04-07T16:01:14;11.00;99.90
53053;DHT22;38934;52.690;6.184;2023-04-07T16:03:40;11.00;99.90
53053;DHT22;38934;52.690;6.184;2023-04-07T16:06:05;11.00;99.90